Time;durP1;ratioP1;P1;durP2;ratioP2;P2;SDS_P1;SDS_P2;PMS_P1;PMS_P2;Temp;Humidity;BMP_temperature;BMP_pressure;BME280_temperature;BME280_humidity;BME280_pressure;Samples;Min_cycle;Max_cycle;Signal;HPM_P1;HPM_P2
2022/11/11 00:00:30;;;;;;;12.55;5.38;;;;;;;;;;5030747;28;20152;-76
2022/11/11 00:02:56;;;;;;;16.42;6.53;;;;;;;;;;5023461;28;20045;-76
2022/11/11 00:05:23;;;;;;;24.17;7.13;;;;;;;;;;5010281;28;20369;-76
2022/11/11 00:07:51;;;;;;;12.85;6.38;;;;;;;;;;5006373;28;22050;-76
2022/11/11 00:10:17;;;;;;;16.15;6.55;;;;;;;;;;5007484;28;20100;-77
2022/11/11 00:12:43;;;;;;;14.52;7.38;;;;;;;;;;4997163;28;20409;-76
2022/11/11 00:15:09;;;;;;;15.68;7.90;;;;;;;;;;5012848;28;20417;-76
2022/11/11 00:25:51;;;;;;;21.45;8.57;;;;;;;;;;5010114;28;20045;-76
2022/11/11 00:28:17;;;;;;;16.63;7.53;;;;;;;;;;5008453;28;20049;-76
2022/11/11 00:30:43;;;;;;;13.93;7.35;;;;;;;;;;4990492;28;20133;-76
2022/11/11 00:33:09;;;;;;;16.80;9.07;;;;;;;;;;5008565;28;20061;-76
2022/11/11 00:35:54;;;;;;;16.42;8.60;;;;;;;;;;5012382;28;20064;-76
2022/11/11 00:41:04;;;;;;;16.83;8.75;;;;;;;;;;5009422;28;19932;-77
2022/11/11 00:43:30;;;;;;;16.92;8.02;;;;;;;;;;5007512;28;20492;-77
2022/11/11 00:50:57;;;;;;;18.80;9.20;;;;;;;;;;4993156;28;20184;-76
2022/11/11 00:51:27;;;;;;;18.23;9.00;;;;;;;;;;5010892;28;20433;-77
2022/11/11 00:53:53;;;;;;;24.38;10.93;;;;;;;;;;5016189;28;20506;-76
2022/11/11 00:56:20;;;;;;;17.17;8.48;;;;;;;;;;5010493;28;20064;-77
2022/11/11 00:58:46;;;;;;;18.38;9.40;;;;;;;;;;4992507;28;20118;-76
2022/11/11 01:01:12;;;;;;;18.83;9.20;;;;;;;;;;5011816;28;20123;-77
2022/11/11 01:03:38;;;;;;;16.90;9.15;;;;;;;;;;4995127;28;20049;-77
2022/11/11 01:06:05;;;;;;;15.65;8.95;;;;;;;;;;5027487;28;20038;-77
2022/11/11 01:08:31;;;;;;;17.60;8.98;;;;;;;;;;5031804;28;20030;-76
2022/11/11 01:10:58;;;;;;;20.08;9.55;;;;;;;;;;5037412;28;20033;-77
2022/11/11 01:13:26;;;;;;;20.92;9.50;;;;;;;;;;5034737;28;20073;-76
2022/11/11 01:15:52;;;;;;;18.80;8.80;;;;;;;;;;5030370;28;20089;-77
2022/11/11 01:18:23;;;;;;;12.35;7.35;;;;;;;;;;4993914;28;20077;-77
2022/11/11 01:21:03;;;;;;;18.27;9.00;;;;;;;;;;5012960;28;20120;-77
2022/11/11 01:23:30;;;;;;;17.55;8.90;;;;;;;;;;5010774;28;20481;-77
2022/11/11 01:26:01;;;;;;;16.05;8.52;;;;;;;;;;4991640;28;20091;-77
2022/11/11 01:28:27;;;;;;;14.68;8.20;;;;;;;;;;5014107;28;20026;-77
2022/11/11 01:30:53;;;;;;;16.52;9.65;;;;;;;;;;5014292;28;20036;-75
2022/11/11 01:33:19;;;;;;;16.40;8.40;;;;;;;;;;5032333;28;20084;-75
2022/11/11 01:35:45;;;;;;;19.17;9.88;;;;;;;;;;5039006;28;21477;-76
2022/11/11 01:38:11;;;;;;;11.75;7.97;;;;;;;;;;5026825;28;20048;-75
2022/11/11 01:40:41;;;;;;;20.23;9.27;;;;;;;;;;4996289;28;20048;-75
2022/11/11 01:43:07;;;;;;;23.30;9.55;;;;;;;;;;5026414;28;20036;-76
2022/11/11 01:45:49;;;;;;;18.55;9.63;;;;;;;;;;4987482;28;20075;-76
2022/11/11 01:51:14;;;;;;;17.42;9.90;;;;;;;;;;5011111;28;20159;-76
2022/11/11 01:53:41;;;;;;;19.17;9.20;;;;;;;;;;5009013;28;20484;-75
2022/11/11 01:56:08;;;;;;;17.75;9.57;;;;;;;;;;5033286;28;20076;-75
2022/11/11 01:58:34;;;;;;;20.60;9.52;;;;;;;;;;4991437;28;20171;-75
2022/11/11 02:01:01;;;;;;;22.73;9.27;;;;;;;;;;5018224;28;20055;-76
2022/11/11 02:03:29;;;;;;;21.67;10.13;;;;;;;;;;4992677;28;20036;-75
2022/11/11 02:05:56;;;;;;;17.75;9.07;;;;;;;;;;5005147;28;20044;-75
2022/11/11 02:08:32;;;;;;;21.45;9.23;;;;;;;;;;5009306;28;20041;-75
2022/11/11 02:11:03;;;;;;;16.92;9.45;;;;;;;;;;5046973;28;20045;-75
2022/11/11 02:16:14;;;;;;;13.80;8.05;;;;;;;;;;5036063;28;20067;-75
2022/11/11 02:18:41;;;;;;;15.07;7.95;;;;;;;;;;5017579;28;20052;-76
2022/11/11 02:21:08;;;;;;;14.85;8.70;;;;;;;;;;5011614;28;20049;-76
2022/11/11 02:23:41;;;;;;;15.30;9.43;;;;;;;;;;5015004;28;20040;-76
2022/11/11 02:26:08;;;;;;;17.58;9.27;;;;;;;;;;5009197;28;20102;-76
2022/11/11 02:28:34;;;;;;;22.70;9.15;;;;;;;;;;5013226;28;20115;-76
2022/11/11 02:31:00;;;;;;;21.30;9.70;;;;;;;;;;4993903;28;21690;-76
2022/11/11 02:33:26;;;;;;;16.13;9.70;;;;;;;;;;4988969;28;22295;-76
2022/11/11 02:35:55;;;;;;;17.13;8.95;;;;;;;;;;4991827;28;20136;-76
2022/11/11 02:38:21;;;;;;;21.30;9.60;;;;;;;;;;5015463;28;20049;-75
2022/11/11 02:43:32;;;;;;;16.55;10.63;;;;;;;;;;5012222;28;20049;-77
2022/11/11 02:45:58;;;;;;;21.35;10.18;;;;;;;;;;5015842;28;20229;-78
2022/11/11 02:48:25;;;;;;;22.00;10.35;;;;;;;;;;5019108;28;20041;-77
2022/11/11 02:50:51;;;;;;;20.10;11.32;;;;;;;;;;5034002;28;20037;-77
2022/11/11 02:53:17;;;;;;;17.15;10.05;;;;;;;;;;5011966;28;20044;-76
2022/11/11 02:55:43;;;;;;;21.60;10.05;;;;;;;;;;5035247;28;20046;-77
2022/11/11 02:58:09;;;;;;;22.60;10.90;;;;;;;;;;5031535;28;20064;-77
2022/11/11 03:00:35;;;;;;;25.92;11.07;;;;;;;;;;5016403;28;20056;-76
2022/11/11 03:03:02;;;;;;;24.25;12.07;;;;;;;;;;4996210;28;20073;-77
2022/11/11 03:05:28;;;;;;;21.80;10.70;;;;;;;;;;5012903;28;20048;-77
2022/11/11 03:07:54;;;;;;;17.33;10.15;;;;;;;;;;5001995;28;20041;-77
2022/11/11 03:10:20;;;;;;;19.23;9.88;;;;;;;;;;5017032;28;20520;-77
2022/11/11 03:12:46;;;;;;;19.20;10.05;;;;;;;;;;5031940;28;20050;-77
2022/11/11 03:15:12;;;;;;;20.27;11.63;;;;;;;;;;5028887;28;20068;-76
2022/11/11 03:17:38;;;;;;;24.42;13.02;;;;;;;;;;5004984;28;20037;-77
2022/11/11 03:23:00;;;;;;;29.42;13.60;;;;;;;;;;5011020;28;20048;-76
2022/11/11 03:25:38;;;;;;;27.05;14.18;;;;;;;;;;5012198;28;20119;-77
2022/11/11 03:28:05;;;;;;;18.75;11.93;;;;;;;;;;4994703;28;20080;-77
2022/11/11 03:30:32;;;;;;;22.08;13.65;;;;;;;;;;4992513;28;20475;-76
2022/11/11 03:32:59;;;;;;;26.00;15.63;;;;;;;;;;5008119;28;20080;-75
2022/11/11 03:35:25;;;;;;;23.65;14.25;;;;;;;;;;5008485;28;20063;-75
2022/11/11 03:40:36;;;;;;;26.38;15.43;;;;;;;;;;5024562;28;20049;-75
2022/11/11 03:43:02;;;;;;;26.17;15.63;;;;;;;;;;5025575;28;20052;-75
2022/11/11 03:45:28;;;;;;;27.30;16.95;;;;;;;;;;5023340;28;20094;-76
2022/11/11 03:47:54;;;;;;;28.88;15.32;;;;;;;;;;5011356;28;20491;-75
2022/11/11 03:50:21;;;;;;;28.23;17.00;;;;;;;;;;5007397;28;20443;-75
2022/11/11 03:52:48;;;;;;;25.40;17.38;;;;;;;;;;5005863;28;21015;-75
2022/11/11 03:55:15;;;;;;;30.88;15.50;;;;;;;;;;5009531;28;20043;-75
2022/11/11 03:57:45;;;;;;;25.83;17.35;;;;;;;;;;5017111;28;20052;-74
2022/11/11 04:00:15;;;;;;;27.88;18.90;;;;;;;;;;5008794;28;20090;-75
2022/11/11 04:10:58;;;;;;;25.23;18.55;;;;;;;;;;5011703;28;20463;-75
2022/11/11 04:16:09;;;;;;;23.25;18.10;;;;;;;;;;5008863;28;20041;-74
2022/11/11 04:26:53;;;;;;;27.67;21.60;;;;;;;;;;5014621;28;20045;-75
2022/11/11 04:29:28;;;;;;;37.65;22.77;;;;;;;;;;5009951;28;20045;-76
2022/11/11 04:34:40;;;;;;;34.45;20.88;;;;;;;;;;5038545;28;20045;-76
2022/11/11 04:37:06;;;;;;;29.23;21.15;;;;;;;;;;5026435;28;20131;-75
2022/11/11 04:42:17;;;;;;;31.88;21.98;;;;;;;;;;5034934;28;20116;-76
2022/11/11 04:47:27;;;;;;;30.13;20.33;;;;;;;;;;5005272;28;20070;-77
2022/11/11 04:49:54;;;;;;;37.20;22.63;;;;;;;;;;5024017;28;20048;-76
2022/11/11 04:52:26;;;;;;;31.02;22.80;;;;;;;;;;5015210;28;20091;-76
2022/11/11 04:57:50;;;;;;;31.02;19.55;;;;;;;;;;5034389;28;20045;-76
2022/11/11 05:00:17;;;;;;;32.80;23.05;;;;;;;;;;5031366;28;20108;-76
2022/11/11 05:08:54;;;;;;;35.08;23.25;;;;;;;;;;5012586;28;20053;-76
2022/11/11 05:11:00;;;;;;;28.48;21.48;;;;;;;;;;5000465;28;20053;-76
2022/11/11 05:21:53;;;;;;;37.63;22.58;;;;;;;;;;5009266;28;20056;-75
2022/11/11 05:27:09;;;;;;;37.95;24.63;;;;;;;;;;5011002;28;20059;-76
2022/11/11 05:29:35;;;;;;;32.17;22.02;;;;;;;;;;4999711;28;20044;-75
2022/11/11 05:32:02;;;;;;;37.30;24.02;;;;;;;;;;5014145;28;20448;-76
2022/11/11 05:34:28;;;;;;;34.22;24.33;;;;;;;;;;5010939;28;20053;-75
2022/11/11 05:36:55;;;;;;;37.08;24.38;;;;;;;;;;5010474;28;20496;-74
2022/11/11 05:39:21;;;;;;;36.38;23.67;;;;;;;;;;5009661;28;20055;-76
2022/11/11 05:41:47;;;;;;;34.38;24.60;;;;;;;;;;4992690;28;20045;-75
2022/11/11 05:44:13;;;;;;;38.78;25.83;;;;;;;;;;4993457;28;20045;-75
2022/11/11 05:46:39;;;;;;;35.65;24.35;;;;;;;;;;5006227;28;20048;-75
2022/11/11 05:49:14;;;;;;;38.03;23.58;;;;;;;;;;4993292;28;20048;-75
2022/11/11 05:51:41;;;;;;;37.47;24.27;;;;;;;;;;4995804;28;20051;-75
2022/11/11 05:54:07;;;;;;;46.90;25.35;;;;;;;;;;5007688;28;20136;-75
2022/11/11 05:56:33;;;;;;;36.25;25.05;;;;;;;;;;5009852;28;20486;-75
2022/11/11 05:58:59;;;;;;;41.72;26.25;;;;;;;;;;5008882;28;20040;-76
2022/11/11 06:01:25;;;;;;;37.83;24.60;;;;;;;;;;4974060;28;20131;-75
2022/11/11 06:03:51;;;;;;;39.92;26.00;;;;;;;;;;4997933;28;20076;-75
2022/11/11 06:06:17;;;;;;;38.15;26.45;;;;;;;;;;5002690;28;20075;-75
2022/11/11 06:08:43;;;;;;;40.20;24.08;;;;;;;;;;5012278;28;20051;-75
2022/11/11 06:11:09;;;;;;;41.50;26.60;;;;;;;;;;5014609;28;20045;-75
2022/11/11 06:13:35;;;;;;;38.65;23.13;;;;;;;;;;5030051;28;20074;-75
2022/11/11 06:16:01;;;;;;;36.20;21.88;;;;;;;;;;5024442;28;20408;-75
2022/11/11 06:18:28;;;;;;;36.50;24.30;;;;;;;;;;5061884;28;20043;-74
2022/11/11 06:20:56;;;;;;;35.00;22.15;;;;;;;;;;5043736;28;20045;-75
2022/11/11 06:23:22;;;;;;;34.60;23.98;;;;;;;;;;5012080;28;20054;-75
2022/11/11 06:28:33;;;;;;;38.22;24.60;;;;;;;;;;5014849;28;20072;-75
2022/11/11 06:30:59;;;;;;;37.08;24.98;;;;;;;;;;5017902;28;20046;-74
2022/11/11 06:33:25;;;;;;;38.13;25.77;;;;;;;;;;5029842;28;20053;-74
2022/11/11 06:35:51;;;;;;;33.95;23.13;;;;;;;;;;5040409;28;20056;-75
2022/11/11 06:38:18;;;;;;;37.80;24.67;;;;;;;;;;5049680;28;20047;-75
2022/11/11 06:40:44;;;;;;;35.45;24.15;;;;;;;;;;5023203;28;20049;-74
2022/11/11 06:43:10;;;;;;;41.90;25.48;;;;;;;;;;5020414;28;20106;-74
2022/11/11 06:45:37;;;;;;;39.35;25.20;;;;;;;;;;5007810;28;20045;-75
2022/11/11 06:48:03;;;;;;;37.08;23.25;;;;;;;;;;5016566;28;20044;-76
2022/11/11 06:50:30;;;;;;;37.67;21.33;;;;;;;;;;5008273;28;20503;-75
2022/11/11 06:52:56;;;;;;;37.20;24.27;;;;;;;;;;5008586;28;20047;-75
2022/11/11 06:55:22;;;;;;;35.78;21.60;;;;;;;;;;5008105;28;21039;-75
2022/11/11 06:57:48;;;;;;;35.60;22.70;;;;;;;;;;5027840;28;20132;-75
2022/11/11 07:00:15;;;;;;;36.03;22.35;;;;;;;;;;5010017;28;20049;-74
2022/11/11 07:02:41;;;;;;;35.53;22.15;;;;;;;;;;5020737;28;20048;-75
2022/11/11 07:05:07;;;;;;;33.28;23.08;;;;;;;;;;5009854;28;20043;-75
2022/11/11 07:07:33;;;;;;;31.38;22.40;;;;;;;;;;4996575;28;20099;-75
2022/11/11 07:10:00;;;;;;;35.20;22.25;;;;;;;;;;5013871;28;20036;-76
2022/11/11 07:12:26;;;;;;;40.30;22.77;;;;;;;;;;5011995;28;20049;-75
2022/11/11 07:14:52;;;;;;;34.20;21.92;;;;;;;;;;5012797;28;20041;-75
2022/11/11 07:17:18;;;;;;;31.00;21.90;;;;;;;;;;5019985;28;21216;-75
2022/11/11 07:19:44;;;;;;;31.75;22.05;;;;;;;;;;5014940;28;20050;-75
2022/11/11 07:22:10;;;;;;;33.05;21.75;;;;;;;;;;5014440;28;20045;-75
2022/11/11 07:24:36;;;;;;;35.95;22.85;;;;;;;;;;5012483;28;20055;-75
2022/11/11 07:27:02;;;;;;;38.25;22.95;;;;;;;;;;5017754;28;20041;-75
2022/11/11 07:29:29;;;;;;;38.72;21.65;;;;;;;;;;5016593;28;20135;-76
2022/11/11 07:31:55;;;;;;;37.65;21.60;;;;;;;;;;5011313;28;20048;-75
2022/11/11 07:34:21;;;;;;;38.22;22.52;;;;;;;;;;4994128;28;20619;-75
2022/11/11 07:36:47;;;;;;;33.60;21.83;;;;;;;;;;4975069;28;20462;-75
2022/11/11 07:39:13;;;;;;;32.13;21.50;;;;;;;;;;4992328;28;21170;-75
2022/11/11 07:41:39;;;;;;;41.55;22.75;;;;;;;;;;4976578;28;20478;-74
2022/11/11 07:44:05;;;;;;;41.28;24.13;;;;;;;;;;4990336;28;20131;-75
2022/11/11 07:46:31;;;;;;;35.42;22.23;;;;;;;;;;4992999;28;20048;-75
2022/11/11 07:48:57;;;;;;;33.33;21.60;;;;;;;;;;4981508;28;20677;-74
2022/11/11 07:51:23;;;;;;;47.42;24.23;;;;;;;;;;4979147;28;20046;-75
2022/11/11 07:53:49;;;;;;;31.50;21.27;;;;;;;;;;4993829;28;20188;-75
2022/11/11 07:56:15;;;;;;;35.47;22.98;;;;;;;;;;4999979;28;20029;-74
2022/11/11 07:58:41;;;;;;;36.60;22.67;;;;;;;;;;5020803;28;20096;-75
2022/11/11 08:01:08;;;;;;;34.15;20.88;;;;;;;;;;5006942;28;20413;-75
2022/11/11 08:03:34;;;;;;;34.67;22.85;;;;;;;;;;4995317;28;21604;-74
2022/11/11 08:06:02;;;;;;;41.00;22.52;;;;;;;;;;4981615;28;20068;-74
2022/11/11 08:08:28;;;;;;;33.72;22.77;;;;;;;;;;5011978;28;20077;-75
2022/11/11 08:10:54;;;;;;;35.55;22.35;;;;;;;;;;5000667;28;20076;-75
2022/11/11 08:16:08;;;;;;;35.72;21.23;;;;;;;;;;5006453;28;20045;-75
2022/11/11 08:18:35;;;;;;;31.60;21.80;;;;;;;;;;4992347;28;20092;-75
2022/11/11 08:21:01;;;;;;;36.63;22.17;;;;;;;;;;4992035;28;20050;-76
2022/11/11 08:23:31;;;;;;;34.05;18.92;;;;;;;;;;4988035;28;20045;-75
2022/11/11 08:26:05;;;;;;;38.38;24.95;;;;;;;;;;5008309;28;20072;-75
2022/11/11 08:28:32;;;;;;;31.95;21.27;;;;;;;;;;4997967;28;20041;-75
2022/11/11 08:30:59;;;;;;;31.42;18.00;;;;;;;;;;4978975;28;20586;-75
2022/11/11 08:33:25;;;;;;;36.15;21.45;;;;;;;;;;4985064;28;20172;-75
2022/11/11 08:35:54;;;;;;;33.38;21.33;;;;;;;;;;4995047;28;20049;-76
2022/11/11 08:38:24;;;;;;;42.88;23.05;;;;;;;;;;4988495;28;20045;-75
2022/11/11 08:40:50;;;;;;;29.63;19.10;;;;;;;;;;5008304;28;20602;-76
2022/11/11 08:43:16;;;;;;;39.15;24.05;;;;;;;;;;5007597;28;20045;-75
2022/11/11 08:45:42;;;;;;;39.08;22.73;;;;;;;;;;4994316;28;20045;-75
2022/11/11 08:48:09;;;;;;;37.00;20.00;;;;;;;;;;5005384;28;20063;-75
2022/11/11 08:50:38;;;;;;;28.52;19.88;;;;;;;;;;5025398;28;20856;-75
2022/11/11 08:53:06;;;;;;;31.75;19.67;;;;;;;;;;5014636;28;20468;-75
2022/11/11 08:55:32;;;;;;;31.70;21.85;;;;;;;;;;5010657;28;20053;-75
2022/11/11 08:57:58;;;;;;;39.97;21.98;;;;;;;;;;4984682;28;21158;-75
2022/11/11 09:00:25;;;;;;;31.98;20.70;;;;;;;;;;5004953;28;20083;-75
2022/11/11 09:02:51;;;;;;;29.60;21.10;;;;;;;;;;5021618;28;20050;-75
2022/11/11 09:05:18;;;;;;;31.50;22.17;;;;;;;;;;4996338;28;20703;-75
2022/11/11 09:07:44;;;;;;;30.13;20.27;;;;;;;;;;4998408;28;20041;-74
2022/11/11 09:10:10;;;;;;;30.02;19.40;;;;;;;;;;5011188;28;20033;-74
2022/11/11 09:12:36;;;;;;;34.92;21.13;;;;;;;;;;5011543;28;20076;-74
2022/11/11 09:15:02;;;;;;;39.83;20.20;;;;;;;;;;4988852;28;21769;-75
2022/11/11 09:17:29;;;;;;;35.50;20.85;;;;;;;;;;5007999;28;20044;-74
2022/11/11 09:19:55;;;;;;;34.65;20.08;;;;;;;;;;5008117;28;20992;-75
2022/11/11 09:22:21;;;;;;;35.20;20.80;;;;;;;;;;5021244;28;20095;-75
2022/11/11 09:24:47;;;;;;;31.00;18.77;;;;;;;;;;5018173;28;20833;-74
2022/11/11 09:27:13;;;;;;;25.38;16.65;;;;;;;;;;4999845;28;20046;-75
2022/11/11 09:29:39;;;;;;;37.33;20.27;;;;;;;;;;5020293;28;20134;-75
2022/11/11 09:32:05;;;;;;;28.25;21.10;;;;;;;;;;4998785;28;20048;-75
2022/11/11 09:34:31;;;;;;;32.35;20.95;;;;;;;;;;5022660;28;21633;-75
2022/11/11 09:36:58;;;;;;;32.83;20.55;;;;;;;;;;5014223;28;20060;-74
2022/11/11 09:39:24;;;;;;;25.95;19.25;;;;;;;;;;5025191;28;20049;-76
2022/11/11 09:42:02;;;;;;;28.88;19.38;;;;;;;;;;5004442;28;20616;-75
2022/11/11 09:44:43;;;;;;;23.33;18.00;;;;;;;;;;5020239;28;20060;-75
2022/11/11 09:47:16;;;;;;;29.85;17.55;;;;;;;;;;5041601;28;20037;-75
2022/11/11 09:49:58;;;;;;;26.75;18.55;;;;;;;;;;5038067;28;20033;-76
2022/11/11 09:52:28;;;;;;;30.52;19.83;;;;;;;;;;5005646;28;20057;-76
2022/11/11 09:54:54;;;;;;;24.95;16.20;;;;;;;;;;5002182;28;20041;-75
2022/11/11 09:57:26;;;;;;;27.20;17.67;;;;;;;;;;5019284;28;20139;-76
2022/11/11 09:59:55;;;;;;;30.30;19.70;;;;;;;;;;5000397;28;20709;-76
2022/11/11 10:02:32;;;;;;;28.42;18.50;;;;;;;;;;5018475;28;20116;-76
2022/11/11 10:05:05;;;;;;;19.00;13.07;;;;;;;;;;5016660;28;20056;-75
2022/11/11 10:07:31;;;;;;;25.60;18.40;;;;;;;;;;5017262;28;20131;-76
2022/11/11 10:10:00;;;;;;;32.40;19.13;;;;;;;;;;5002832;28;20048;-75
2022/11/11 10:12:33;;;;;;;29.30;19.30;;;;;;;;;;5012910;28;20041;-76
2022/11/11 10:15:00;;;;;;;33.70;20.00;;;;;;;;;;5013971;28;20441;-76
2022/11/11 10:17:38;;;;;;;23.30;16.35;;;;;;;;;;5020864;28;20049;-75
2022/11/11 10:20:13;;;;;;;26.60;20.05;;;;;;;;;;4992557;28;20073;-76
2022/11/11 10:22:41;;;;;;;31.75;18.15;;;;;;;;;;5017952;28;20054;-75
2022/11/11 10:25:08;;;;;;;25.30;16.83;;;;;;;;;;5020974;28;20041;-75
2022/11/11 10:27:34;;;;;;;26.83;17.30;;;;;;;;;;4991926;28;20640;-76
2022/11/11 10:30:02;;;;;;;22.90;17.38;;;;;;;;;;5020111;28;20393;-76
2022/11/11 10:32:32;;;;;;;23.73;17.52;;;;;;;;;;5020456;28;20080;-76
2022/11/11 10:35:05;;;;;;;27.02;16.70;;;;;;;;;;5026925;28;20143;-75
2022/11/11 10:37:38;;;;;;;25.88;18.35;;;;;;;;;;5023877;28;20690;-75
2022/11/11 10:40:07;;;;;;;20.77;14.20;;;;;;;;;;5022087;28;20049;-74
2022/11/11 10:42:33;;;;;;;29.17;18.95;;;;;;;;;;5021707;28;20060;-75
2022/11/11 10:45:00;;;;;;;23.98;17.35;;;;;;;;;;5020496;28;21093;-75
2022/11/11 10:47:29;;;;;;;23.23;15.82;;;;;;;;;;5002040;28;20124;-74
2022/11/11 10:50:02;;;;;;;26.05;17.95;;;;;;;;;;5022036;28;20039;-75
2022/11/11 10:52:36;;;;;;;26.80;17.80;;;;;;;;;;5018611;28;20529;-75
2022/11/11 10:55:04;;;;;;;24.88;17.35;;;;;;;;;;5011707;28;20139;-75
2022/11/11 10:57:36;;;;;;;23.08;13.15;;;;;;;;;;5019809;28;20053;-75
2022/11/11 11:00:05;;;;;;;24.60;16.27;;;;;;;;;;4997241;28;20066;-76
2022/11/11 11:02:44;;;;;;;25.88;18.15;;;;;;;;;;5017889;28;20333;-75
2022/11/11 11:05:13;;;;;;;29.52;19.05;;;;;;;;;;5016267;28;20044;-75
2022/11/11 11:07:44;;;;;;;25.55;15.80;;;;;;;;;;5032983;28;20045;-75
2022/11/11 11:10:14;;;;;;;27.58;18.23;;;;;;;;;;4991706;28;20589;-74
2022/11/11 11:12:50;;;;;;;27.88;19.05;;;;;;;;;;5007265;28;20567;-74
2022/11/11 11:15:21;;;;;;;26.33;19.33;;;;;;;;;;5025593;28;20078;-74
2022/11/11 11:17:57;;;;;;;27.25;18.30;;;;;;;;;;5025073;28;20044;-77
2022/11/11 11:20:23;;;;;;;20.92;14.77;;;;;;;;;;5018170;28;20106;-74
2022/11/11 11:22:54;;;;;;;27.27;17.65;;;;;;;;;;5033412;28;20040;-74
2022/11/11 11:25:21;;;;;;;26.40;16.70;;;;;;;;;;5020004;28;20136;-75
2022/11/11 11:27:49;;;;;;;29.02;19.05;;;;;;;;;;5042318;28;20037;-75
2022/11/11 11:30:17;;;;;;;25.05;18.42;;;;;;;;;;5036502;28;20107;-75
2022/11/11 11:32:55;;;;;;;26.52;18.00;;;;;;;;;;5016869;28;21430;-74
2022/11/11 11:35:33;;;;;;;23.83;17.63;;;;;;;;;;5030885;28;20066;-75
2022/11/11 11:38:00;;;;;;;18.80;15.43;;;;;;;;;;5011920;28;20068;-74
2022/11/11 11:40:27;;;;;;;22.35;15.82;;;;;;;;;;5042643;28;20108;-81
2022/11/11 11:42:53;;;;;;;25.38;17.58;;;;;;;;;;4992616;28;20130;-81
2022/11/11 11:45:22;;;;;;;24.27;18.08;;;;;;;;;;5040448;28;20577;-80
2022/11/11 11:48:04;;;;;;;23.83;15.85;;;;;;;;;;5011152;28;20132;-80
2022/11/11 11:50:30;;;;;;;25.20;16.15;;;;;;;;;;5027926;28;20492;-80
2022/11/11 11:53:05;;;;;;;26.00;18.17;;;;;;;;;;5040150;28;20029;-81
2022/11/11 11:55:36;;;;;;;25.33;16.67;;;;;;;;;;5029251;28;20492;-81
2022/11/11 11:58:10;;;;;;;20.90;15.68;;;;;;;;;;5028353;28;20102;-81
2022/11/11 12:00:52;;;;;;;23.15;17.98;;;;;;;;;;5025278;28;20405;-81
2022/11/11 12:03:36;;;;;;;24.85;16.92;;;;;;;;;;5018727;28;20045;-80
2022/11/11 12:06:05;;;;;;;29.52;17.98;;;;;;;;;;5017826;28;20124;-80
2022/11/11 12:08:54;;;;;;;23.55;16.40;;;;;;;;;;5022848;28;20061;-80
2022/11/11 12:11:23;;;;;;;24.33;17.38;;;;;;;;;;5044600;28;20056;-81
2022/11/11 12:14:07;;;;;;;23.25;16.95;;;;;;;;;;5024098;28;20079;-81
2022/11/11 12:16:33;;;;;;;;;;;;;;;;;;5009845;28;20045;-81
2022/11/11 12:19:02;;;;;;;21.75;17.55;;;;;;;;;;5027205;28;19928;-78
2022/11/11 12:21:39;;;;;;;25.17;15.90;;;;;;;;;;5023027;28;20049;-79
2022/11/11 12:24:17;;;;;;;20.48;15.82;;;;;;;;;;5010219;28;20140;-80
2022/11/11 12:26:43;;;;;;;18.33;14.38;;;;;;;;;;5028105;28;20052;-80
2022/11/11 12:29:09;;;;;;;27.50;17.88;;;;;;;;;;5027961;28;20037;-80
2022/11/11 12:31:54;;;;;;;25.27;17.20;;;;;;;;;;5025589;28;20497;-80
2022/11/11 12:34:43;;;;;;;18.55;13.77;;;;;;;;;;4985429;28;20053;-79
2022/11/11 12:37:24;;;;;;;26.65;17.10;;;;;;;;;;5020622;28;20415;-80
2022/11/11 12:39:59;;;;;;;23.92;18.70;;;;;;;;;;4979061;28;20101;-80
2022/11/11 12:42:25;;;;;;;24.85;17.23;;;;;;;;;;4992824;28;20053;-79
2022/11/11 12:44:57;;;;;;;21.75;16.85;;;;;;;;;;4991881;28;20104;-80
2022/11/11 12:47:29;;;;;;;21.88;15.95;;;;;;;;;;4995005;28;20045;-79
2022/11/11 12:49:58;;;;;;;21.58;15.82;;;;;;;;;;5018186;28;20047;-80
2022/11/11 12:52:24;;;;;;;20.13;16.50;;;;;;;;;;5011553;28;20063;-80
2022/11/11 12:54:59;;;;;;;21.60;17.80;;;;;;;;;;5021265;28;21663;-80
2022/11/11 12:58:04;;;;;;;20.48;14.60;;;;;;;;;;4999148;28;20080;-79
2022/11/11 13:00:31;;;;;;;23.67;13.32;;;;;;;;;;4947782;28;20047;-80
2022/11/11 13:03:00;;;;;;;20.42;15.30;;;;;;;;;;4941910;28;20031;-79
2022/11/11 13:05:38;;;;;;;23.13;16.50;;;;;;;;;;4969737;28;20052;-80
2022/11/11 13:08:14;;;;;;;23.08;15.00;;;;;;;;;;5003628;28;20701;-80
2022/11/11 13:10:46;;;;;;;24.20;14.00;;;;;;;;;;5003116;28;20052;-81
2022/11/11 13:13:45;;;;;;;18.73;13.93;;;12.10;99.90;;;;;;5008216;28;20048;-80
2022/11/11 13:16:11;;;;;;;16.20;13.93;;;;;;;;;;5003072;28;20045;-80
2022/11/11 13:19:07;;;;;;;20.42;15.82;;;;;;;;;;5009100;28;20111;-79
2022/11/11 13:21:52;;;;;;;19.60;14.80;;;;;;;;;;4998120;28;20061;-79
2022/11/11 13:24:20;;;;;;;18.95;14.23;;;;;;;;;;4994717;28;20041;-80
2022/11/11 13:26:53;;;;;;;22.05;16.05;;;;;;;;;;5010231;28;20155;-80
2022/11/11 13:29:23;;;;;;;23.45;15.45;;;;;;;;;;5027897;28;20045;-79
2022/11/11 13:31:51;;;;;;;24.63;15.73;;;;;;;;;;4999136;28;20050;-79
2022/11/11 13:34:17;;;;;;;23.55;16.13;;;;;;;;;;5003764;28;20774;-79
2022/11/11 13:36:47;;;;;;;19.75;13.35;;;;;;;;;;5025723;28;20762;-81
2022/11/11 13:39:28;;;;;;;20.75;15.13;;;;;;;;;;5026855;28;20048;-81
2022/11/11 13:41:56;;;;;;;20.35;14.75;;;;;;;;;;5006386;28;20103;-81
2022/11/11 13:44:24;;;;;;;18.63;15.07;;;;;;;;;;4991937;28;20053;-81
2022/11/11 13:46:50;;;;;;;21.30;14.75;;;;;;;;;;4995946;28;20060;-82
2022/11/11 13:49:22;;;;;;;20.45;16.42;;;;;;;;;;4974510;28;20041;-81
2022/11/11 13:51:57;;;;;;;23.65;17.30;;;;;;;;;;5006430;28;20375;-81
2022/11/11 13:54:28;;;;;;;32.17;19.35;;;;;;;;;;5007932;28;20076;-81
2022/11/11 13:57:01;;;;;;;29.45;18.50;;;;;;;;;;5007818;28;20045;-81
2022/11/11 13:59:28;;;;;;;26.77;17.33;;;;;;;;;;4982664;28;20055;-81
2022/11/11 14:02:13;;;;;;;23.83;18.05;;;;;;;;;;5006972;28;20545;-80
2022/11/11 14:04:58;;;;;;;25.13;18.98;;;;;;;;;;4993597;28;20081;-81
2022/11/11 14:07:43;;;;;;;24.45;17.55;;;;;;;;;;5005888;28;20102;-81
2022/11/11 14:10:09;;;;;;;26.13;18.40;;;;;;;;;;4981872;28;20049;-81
2022/11/11 14:12:38;;;;;;;27.67;19.70;;;;;;;;;;4977155;28;20133;-81
2022/11/11 14:15:06;;;;;;;27.75;19.90;;;;;;;;;;5006727;28;20069;-80
2022/11/11 14:17:33;;;;;;;26.27;19.15;;;;;;;;;;4994236;28;20045;-78
2022/11/11 14:19:59;;;;;;;28.00;19.27;;;;;;;;;;5003626;28;20045;-78
2022/11/11 14:22:28;;;;;;;32.88;20.70;;;;;;;;;;5023509;28;20061;-79
2022/11/11 14:24:54;;;;;;;27.42;20.02;;;;;;;;;;4988011;28;20077;-78
2022/11/11 14:27:31;;;;;;;29.83;21.20;;;;;;;;;;5001611;28;20041;-80
2022/11/11 14:29:57;;;;;;;32.60;21.63;;;;;;;;;;5028498;28;20052;-79
2022/11/11 14:32:42;;;;;;;30.48;20.40;;;;;;;;;;5012092;28;20143;-80
2022/11/11 14:35:18;;;;;;;30.55;20.77;;;;;;;;;;5047212;28;20121;-80
2022/11/11 14:38:12;;;;;;;29.35;20.27;;;;;;;;;;5044949;28;20496;-80
2022/11/11 14:40:38;;;;;;;32.95;22.58;;;;;;;;;;5045569;28;20451;-81
2022/11/11 14:43:42;;;;;;;28.42;19.23;;;;;;;;;;5026947;28;20063;-80
2022/11/11 14:46:11;;;;;;;27.05;19.45;;;;;;;;;;4945717;28;20039;-78
2022/11/11 14:48:51;;;;;;;27.95;19.20;;;;;;;;;;4948372;28;20038;-80
2022/11/11 14:51:38;;;;;;;31.98;20.80;;;;;;;;;;4997257;28;20113;-79
2022/11/11 14:54:05;;;;;;;34.80;21.73;;;;;;;;;;5007837;28;20047;-79
2022/11/11 14:56:32;;;;;;;28.48;21.58;;;;;;;;;;5023442;28;20037;-79
2022/11/11 14:59:03;;;;;;;32.67;22.05;;;;;;;;;;5027273;28;20041;-79
2022/11/11 15:01:30;;;;;;;31.13;22.05;;;;;;;;;;5012460;28;20462;-80
2022/11/11 15:03:57;;;;;;;29.13;22.45;;;;;;;;;;5024370;28;20527;-80
2022/11/11 15:06:25;;;;;;;26.13;19.27;;;;;;;;;;5014595;28;20067;-80
2022/11/11 15:08:51;;;;;;;29.67;22.58;;;;;;;;;;5036898;28;20040;-80
2022/11/11 15:11:20;;;;;;;31.27;20.27;;;;;;;;;;5011958;28;20054;-80
2022/11/11 15:13:49;;;;;;;29.95;20.25;;;;;;;;;;5046630;28;20104;-80
2022/11/11 15:16:33;;;;;;;29.52;20.83;;;;;;;;;;5040576;28;20072;-80
2022/11/11 15:19:05;;;;;;;28.73;20.50;;;;;;;;;;5013012;28;20071;-81
2022/11/11 15:21:35;;;;;;;31.58;20.83;;;;;;;;;;5026848;28;20115;-81
2022/11/11 15:24:21;;;;;;;28.48;20.65;;;;;;;;;;5014558;28;20048;-81
2022/11/11 15:26:55;;;;;;;26.77;19.77;;;;;;;;;;5029950;28;20053;-80
2022/11/11 15:30:00;;;;;;;25.67;16.73;;;;;;;;;;5031876;28;20420;-81
2022/11/11 15:32:26;;;;;;;24.35;19.70;;;;;;;;;;4998865;28;20049;-80
2022/11/11 15:35:10;;;;;;;31.02;19.17;;;;;;;;;;4992457;28;20064;-73
2022/11/11 15:37:37;;;;;;;29.52;20.60;;;;;;;;;;5019967;28;20060;-73
2022/11/11 15:40:03;;;;;;;27.77;18.52;;;;;;;;;;5004988;28;20365;-72
2022/11/11 15:42:40;;;;;;;28.58;18.35;;;;;;;;;;5016678;28;20114;-73
2022/11/11 15:45:26;;;;;;;26.52;18.50;;;;;;;;;;4991463;28;20520;-73
2022/11/11 15:47:53;;;;;;;26.15;18.63;;;;;;;;;;5008067;28;20587;-72
2022/11/11 15:50:26;;;;;;;29.15;19.92;;;;;;;;;;5039548;28;20037;-73
2022/11/11 15:52:56;;;;;;;24.30;18.02;;;;;;;;;;5005715;28;20389;-73